Tercio, Colorado
Current Conditions -  °F | °C
As of 10:32 PM on Friday 24 Oct 2014 (Local Time) from KVTP Reporting Station
Clear Clear  
Wind Chill: 43°   Ceiling: Unl
Heat Index: 48°   Visibility: 10mi
Dew Point: 21°   Wind: 14mph
Humidity: 34%   Direction: 190°S
Pressure: 30.56"   Gusts: NA
Location:  37.1566°N, 104.956°W
Report Text: KVTP 250432Z AUTO 19012KT 10SM CLR 09/M06 A3056 RMK AO2
Loading
Personal Weather Stations






























Interactive Weather Map
Tropical Storm Tracking
New forecast layout! Learn more

10-Day Weather Forecast

Advertisements
Track Severe Weather on mobile